createdAt,value
2018-02-16T15:29:04.050Z,2.20
2018-02-16T15:30:04.041Z,2.40
2018-02-16T15:32:58.174Z,2.50
2018-02-16T15:34:51.312Z,2.60
2018-02-16T15:35:51.340Z,2.50
2018-02-16T15:37:44.381Z,3.10
2018-02-16T15:38:44.374Z,2.70
2018-02-16T15:40:37.446Z,3.90
2018-02-16T15:41:37.487Z,4.50
2018-02-16T15:44:30.521Z,3.50
2018-02-16T15:47:23.600Z,2.50
2018-02-16T15:49:17.661Z,2.60
2018-02-16T15:50:17.654Z,2.40
2018-02-16T15:53:10.826Z,2.70
2018-02-16T15:55:04.863Z,2.40
2018-02-16T15:56:04.848Z,2.10
2018-02-16T16:00:51.392Z,3.20
2018-02-16T16:01:51.112Z,3.20
2018-02-16T16:03:44.138Z,2.60
2018-02-16T16:04:44.150Z,3.00
2018-02-16T16:07:37.197Z,3.10
2018-02-16T16:08:37.213Z,3.10
2018-02-16T16:09:37.221Z,3.30
2018-02-16T16:10:38.048Z,3.40
2018-02-16T16:11:37.267Z,3.50
2018-02-16T16:12:37.282Z,3.00
2018-02-16T16:13:37.274Z,3.80
2018-02-16T16:14:37.298Z,3.40
2018-02-16T16:15:37.301Z,3.30
2018-02-16T16:16:37.335Z,3.20
2018-02-16T16:17:37.320Z,2.40
2018-02-16T16:18:37.377Z,2.80
2018-02-16T16:19:37.345Z,2.60
2018-02-16T16:20:37.351Z,2.60
2018-02-16T16:21:37.377Z,2.80
2018-02-16T16:22:37.378Z,2.90
2018-02-16T16:23:37.392Z,2.60
2018-02-16T16:24:37.459Z,3.00
2018-02-16T16:25:37.409Z,2.90
2018-02-16T16:26:37.438Z,2.90
2018-02-16T16:27:37.469Z,2.70
2018-02-16T16:28:37.441Z,3.50
2018-02-16T16:29:37.446Z,2.90
2018-02-16T16:30:37.474Z,3.40
2018-02-16T16:31:37.470Z,3.50
2018-02-16T16:32:37.484Z,3.60
2018-02-16T16:33:38.052Z,4.50
2018-02-16T16:34:37.505Z,5.30
2018-02-16T16:35:37.508Z,3.40
2018-02-16T16:36:37.530Z,3.80
2018-02-16T16:37:37.531Z,3.30
2018-02-16T16:38:37.547Z,3.60
2018-02-16T16:39:37.568Z,6.50
2018-02-16T16:40:37.577Z,3.60
2018-02-16T16:41:37.577Z,2.80
2018-02-16T16:42:37.590Z,3.20
2018-02-16T16:43:37.654Z,3.30
2018-02-16T16:44:37.632Z,3.80
2018-02-16T16:45:37.617Z,3.30
2018-02-16T16:46:37.622Z,3.50
2018-02-16T16:47:37.653Z,3.40
2018-02-16T16:48:37.648Z,3.40
2018-02-16T16:49:37.660Z,3.30
2018-02-16T16:50:37.680Z,3.30
2018-02-16T16:51:37.674Z,3.00
2018-02-16T16:52:37.674Z,3.60
2018-02-16T16:53:37.691Z,4.10
2018-02-16T16:54:37.725Z,3.60
2018-02-16T16:55:37.732Z,4.00
2018-02-16T16:56:37.712Z,3.50
2018-02-16T16:57:37.715Z,3.30
2018-02-16T16:58:38.559Z,4.50
2018-02-16T16:59:37.746Z,3.40
2018-02-16T17:00:37.750Z,3.00
2018-02-16T17:01:37.773Z,3.90
2018-02-16T17:02:37.800Z,3.70
2018-02-16T17:03:37.796Z,3.70
2018-02-16T17:04:37.797Z,3.60
2018-02-16T17:05:37.803Z,3.70
2018-02-16T17:06:37.815Z,3.90
2018-02-16T17:07:37.821Z,3.60
2018-02-16T17:08:37.826Z,4.10
2018-02-16T17:09:37.835Z,3.80
2018-02-16T17:10:37.848Z,4.60
2018-02-16T17:11:37.855Z,3.70
2018-02-16T17:12:37.867Z,3.50
2018-02-16T17:13:37.872Z,3.60
2018-02-16T17:14:37.881Z,4.60
2018-02-16T17:15:37.898Z,4.40
2018-02-16T17:16:37.892Z,4.10
2018-02-16T17:17:37.914Z,5.20
2018-02-16T17:18:37.908Z,5.50
2018-02-16T17:19:37.916Z,6.00
2018-02-16T17:20:37.932Z,4.60
2018-02-16T17:21:38.014Z,4.30
2018-02-16T17:22:37.942Z,4.90
2018-02-16T17:23:37.946Z,4.60
2018-02-16T17:24:37.964Z,4.70
2018-02-16T17:25:38.018Z,4.50
2018-02-16T17:26:37.972Z,4.20
2018-02-16T17:27:38.009Z,5.20
2018-02-16T17:28:37.992Z,4.40
2018-02-16T17:29:38.023Z,4.20
2018-02-16T17:30:38.023Z,4.30
2018-02-16T17:31:38.079Z,4.60
2018-02-16T17:32:38.032Z,4.20
2018-02-16T17:33:38.032Z,4.50
2018-02-16T17:34:38.040Z,5.20
2018-02-16T17:35:38.064Z,5.30
2018-02-16T17:36:38.099Z,5.50
2018-02-16T17:37:38.071Z,6.50
2018-02-16T17:38:38.070Z,5.60
2018-02-16T17:39:38.099Z,5.20
2018-02-16T17:40:38.088Z,5.50
2018-02-16T17:41:38.116Z,5.10
2018-02-16T17:42:38.115Z,5.90
2018-02-16T17:43:38.134Z,5.60
2018-02-16T17:44:38.126Z,6.60
2018-02-16T17:45:38.145Z,5.80
2018-02-16T17:46:38.137Z,6.40
2018-02-16T17:47:38.155Z,5.70
2018-02-16T17:48:38.200Z,5.80
2018-02-16T17:49:38.159Z,5.50
2018-02-16T17:50:38.175Z,4.50
2018-02-16T17:51:38.194Z,4.10
2018-02-16T17:52:38.197Z,4.90
2018-02-16T17:53:38.197Z,4.20
2018-02-16T17:54:38.207Z,4.80
2018-02-16T17:55:38.216Z,4.60
2018-02-16T17:56:38.213Z,4.90
2018-02-16T17:57:38.232Z,5.20
2018-02-16T17:58:38.236Z,4.90
2018-02-16T17:59:38.269Z,6.30
2018-02-16T18:00:38.270Z,5.00
2018-02-16T18:01:38.261Z,4.40
2018-02-16T18:02:38.277Z,5.00
2018-02-16T18:03:38.277Z,5.20
2018-02-16T18:04:38.292Z,4.60
2018-02-16T18:05:38.306Z,4.40
2018-02-16T18:06:38.294Z,4.80
2018-02-16T18:07:38.312Z,4.40
2018-02-16T18:08:38.318Z,5.10
2018-02-16T18:09:38.322Z,5.30
2018-02-16T18:10:38.360Z,5.00
2018-02-16T18:11:38.342Z,4.90
2018-02-16T18:12:38.344Z,4.70
2018-02-16T18:13:38.343Z,5.10
2018-02-16T18:14:38.362Z,5.40
2018-02-16T18:15:38.375Z,4.80
2018-02-16T18:16:38.381Z,4.00
2018-02-16T18:17:38.405Z,4.50
2018-02-16T18:18:38.388Z,4.40
2018-02-16T18:19:38.393Z,5.20
2018-02-16T18:20:38.411Z,4.60
2018-02-16T18:21:38.416Z,4.60
2018-02-16T18:22:38.496Z,4.70
2018-02-16T18:23:38.434Z,4.90
2018-02-16T18:24:38.444Z,4.90
2018-02-16T18:25:38.439Z,4.70
2018-02-16T18:26:38.466Z,5.40
2018-02-16T18:27:38.471Z,5.30
2018-02-16T18:28:38.465Z,5.20
2018-02-16T18:29:38.469Z,5.90
2018-02-16T18:30:38.465Z,6.00
2018-02-16T18:31:38.498Z,7.10
2018-02-16T18:32:38.527Z,5.50
2018-02-16T18:33:38.520Z,6.20
2018-02-16T18:34:38.517Z,5.50
2018-02-16T18:35:38.529Z,5.00
2018-02-16T18:36:38.535Z,5.40
2018-02-16T18:37:38.559Z,5.70
2018-02-16T18:38:38.552Z,6.00
2018-02-16T18:39:38.549Z,5.60
2018-02-16T18:40:38.560Z,5.00
2018-02-16T18:41:38.569Z,5.60
2018-02-16T18:42:38.582Z,6.10
2018-02-16T18:43:38.584Z,5.70
2018-02-16T18:44:38.563Z,6.40
2018-02-16T18:45:38.596Z,5.60
2018-02-16T18:46:38.631Z,5.70
2018-02-16T18:47:38.613Z,6.50
2018-02-16T18:48:38.612Z,6.00
2018-02-16T18:49:38.614Z,6.30
2018-02-16T18:50:38.675Z,8.30
2018-02-16T18:51:38.656Z,7.20
2018-02-16T18:52:38.664Z,6.30
2018-02-16T18:53:38.635Z,8.00
2018-02-16T18:54:38.654Z,7.20
2018-02-16T18:55:38.663Z,6.40
2018-02-16T18:56:38.676Z,6.40
2018-02-16T18:57:38.702Z,7.80
2018-02-16T18:58:38.700Z,7.10
2018-02-16T18:59:38.691Z,8.70
2018-02-16T19:00:38.696Z,7.10
2018-02-16T19:01:38.705Z,5.70
2018-02-16T19:02:38.702Z,6.30
2018-02-16T19:03:38.707Z,6.60
2018-02-16T19:04:38.723Z,5.50
2018-02-16T19:05:38.732Z,6.00
2018-02-16T19:06:38.942Z,6.50
2018-02-16T19:07:38.743Z,6.00
2018-02-16T19:08:38.750Z,5.70
2018-02-16T19:09:38.750Z,5.70
2018-02-16T19:10:38.755Z,6.30
2018-02-16T19:11:38.771Z,6.00
2018-02-16T19:12:39.052Z,6.30
2018-02-16T19:13:38.779Z,6.10
2018-02-16T19:14:38.783Z,6.80
2018-02-16T19:15:38.838Z,6.50
2018-02-16T19:16:38.846Z,7.30
2018-02-16T19:17:38.823Z,7.00
2018-02-16T19:18:38.818Z,5.70
2018-02-16T19:19:38.875Z,6.00
2018-02-16T19:20:38.819Z,6.20
2018-02-16T19:21:39.312Z,6.20
2018-02-16T19:22:38.832Z,7.10
2018-02-16T19:23:38.915Z,7.40
2018-02-16T19:24:38.858Z,6.20
2018-02-16T19:25:38.880Z,7.00
2018-02-16T19:26:39.014Z,6.70
2018-02-16T19:27:38.883Z,7.40
2018-02-16T19:28:38.892Z,7.80
2018-02-16T19:29:38.902Z,7.10
2018-02-16T19:30:38.948Z,7.00
2018-02-16T19:31:38.926Z,7.60
2018-02-16T19:32:39.241Z,7.70
2018-02-16T19:33:38.949Z,8.40
2018-02-16T19:34:38.940Z,8.30
2018-02-16T19:35:38.999Z,8.00
2018-02-16T19:36:38.964Z,7.70
2018-02-16T19:37:38.944Z,7.10
2018-02-16T19:38:38.938Z,7.90
2018-02-16T19:39:38.954Z,6.90
2018-02-16T19:40:38.961Z,7.10
2018-02-16T19:41:38.984Z,7.20
2018-02-16T19:42:38.969Z,8.10
2018-02-16T19:43:38.983Z,7.60
2018-02-16T19:44:39.000Z,7.50
2018-02-16T19:45:38.992Z,7.00
2018-02-16T19:46:39.058Z,7.30
2018-02-16T19:47:39.029Z,8.30
2018-02-16T19:48:39.007Z,7.50
2018-02-16T19:49:39.008Z,8.20
2018-02-16T19:50:39.139Z,9.00
2018-02-16T19:51:39.139Z,8.10
2018-02-16T19:52:39.277Z,7.50
2018-02-16T19:53:39.027Z,7.50
2018-02-16T19:54:39.049Z,15.20
2018-02-16T19:55:39.064Z,10.40
2018-02-16T19:56:39.244Z,11.50
2018-02-16T19:57:39.189Z,9.00
2018-02-16T19:58:39.078Z,8.20
2018-02-16T19:59:39.154Z,7.10
2018-02-16T20:00:39.077Z,7.40
2018-02-16T20:01:39.105Z,9.30
2018-02-16T20:02:39.086Z,8.50
2018-02-16T20:03:39.114Z,8.40
2018-02-16T20:04:39.239Z,9.20
2018-02-16T20:05:39.112Z,8.70
2018-02-16T20:06:39.116Z,9.10
2018-02-16T20:07:39.123Z,10.10
2018-02-16T20:08:39.128Z,9.70
2018-02-16T20:09:39.132Z,10.40
2018-02-16T20:10:39.151Z,9.60
2018-02-16T20:11:39.164Z,9.40
2018-02-16T20:12:39.162Z,9.20
2018-02-16T20:13:39.157Z,9.90
2018-02-16T20:14:39.179Z,9.40
2018-02-16T20:15:39.174Z,9.60
2018-02-16T20:16:39.171Z,9.20
2018-02-16T20:17:39.186Z,9.60
2018-02-16T20:18:39.254Z,10.90
2018-02-16T20:19:39.275Z,9.60
2018-02-16T20:20:39.206Z,9.90
2018-02-16T20:21:39.205Z,10.10
2018-02-16T20:22:39.216Z,17.10
2018-02-16T20:23:39.218Z,16.20
2018-02-16T20:24:39.238Z,16.10
2018-02-16T20:25:39.230Z,13.00
2018-02-16T20:26:39.235Z,13.10
2018-02-16T20:27:39.247Z,12.50
2018-02-16T20:28:39.259Z,11.10
2018-02-16T20:29:39.258Z,11.20
2018-02-16T20:31:39.276Z,11.50
2018-02-16T20:32:39.283Z,10.40
2018-02-16T20:33:39.290Z,10.50
2018-02-16T20:35:39.296Z,10.30
2018-02-16T20:36:39.293Z,10.00
2018-02-16T20:37:39.308Z,9.10
2018-02-16T20:38:39.323Z,13.10
2018-02-16T20:39:39.325Z,10.80
2018-02-16T20:40:39.351Z,10.50
2018-02-16T20:42:55.592Z,10.30
2018-02-16T21:00:42.793Z,10.30
2018-02-16T21:01:42.837Z,11.60
2018-02-16T21:02:42.853Z,12.10
2018-02-16T21:03:42.814Z,12.80
2018-02-16T21:04:42.817Z,11.80
2018-02-16T21:05:42.844Z,14.50
2018-02-16T21:06:42.831Z,14.20
2018-02-16T21:07:42.835Z,12.80
2018-02-16T21:08:42.844Z,14.20
2018-02-16T21:09:42.889Z,15.00
2018-02-16T21:10:42.866Z,11.70
2018-02-16T21:11:42.905Z,12.70
2018-02-16T21:12:42.877Z,12.70
2018-02-16T21:13:42.861Z,13.10
2018-02-16T21:14:42.885Z,12.90
2018-02-16T21:15:42.877Z,12.00
2018-02-16T21:16:42.898Z,11.10
2018-02-16T21:17:42.908Z,11.10
2018-02-16T21:18:42.944Z,10.90
2018-02-16T21:19:43.152Z,14.70
2018-02-16T21:20:42.911Z,15.50
2018-02-16T21:21:42.924Z,12.80
2018-02-16T21:22:42.922Z,13.00
2018-02-16T21:23:42.929Z,17.40
2018-02-16T21:24:42.942Z,14.00
2018-02-16T21:25:42.939Z,11.90
2018-02-16T21:26:42.947Z,12.50
2018-02-16T21:27:42.953Z,13.90
2018-02-16T21:28:42.953Z,13.20
2018-02-16T21:29:42.976Z,12.10
2018-02-16T21:30:42.975Z,13.30
2018-02-16T21:31:42.970Z,10.70
2018-02-16T21:32:42.975Z,10.20
2018-02-16T21:33:43.001Z,10.10
2018-02-16T21:34:43.001Z,10.00
2018-02-16T21:35:43.001Z,10.60
2018-02-16T21:36:43.004Z,11.70
2018-02-16T21:37:43.010Z,11.30
2018-02-16T21:38:43.025Z,12.20
2018-02-16T21:39:43.020Z,12.30
2018-02-16T21:40:43.040Z,15.70
2018-02-16T21:41:43.038Z,17.80
2018-02-16T21:42:43.054Z,17.50
2018-02-16T21:43:43.063Z,15.50
2018-02-16T21:44:43.068Z,14.70
2018-02-16T21:45:43.062Z,17.50
2018-02-16T21:46:43.078Z,26.20
2018-02-16T21:47:43.074Z,23.70
2018-02-16T21:48:43.079Z,25.50
2018-02-16T21:49:43.084Z,20.00
2018-02-16T21:50:43.083Z,17.40
2018-02-16T21:51:43.090Z,17.60
2018-02-16T21:52:43.102Z,15.40
2018-02-16T21:53:43.126Z,13.80
2018-02-16T21:54:43.121Z,13.80
2018-02-16T21:55:43.123Z,13.80
2018-02-16T21:56:43.121Z,12.80
2018-02-16T21:57:43.121Z,14.30
2018-02-16T21:58:43.132Z,14.20
2018-02-16T21:59:43.173Z,14.20
2018-02-16T22:00:43.144Z,13.50
2018-02-16T22:01:43.151Z,17.50
2018-02-16T22:02:43.155Z,15.70
2018-02-16T22:03:43.161Z,13.70
2018-02-16T22:04:43.164Z,19.90
2018-02-16T22:05:43.166Z,17.60
2018-02-16T22:06:43.185Z,17.00
2018-02-16T22:07:43.177Z,16.30
2018-02-16T22:08:43.203Z,17.10
2018-02-16T22:09:43.214Z,19.70
2018-02-16T22:10:43.311Z,26.20
2018-02-16T22:11:43.206Z,29.40
2018-02-16T22:12:43.220Z,30.60
2018-02-16T22:13:43.233Z,28.50
2018-02-16T22:14:43.238Z,21.30
2018-02-16T22:15:43.228Z,18.40
2018-02-16T22:16:43.241Z,18.50
2018-02-16T22:17:43.253Z,18.60
2018-02-16T22:18:43.254Z,22.00
2018-02-16T22:19:43.253Z,27.30
2018-02-16T22:20:43.269Z,26.30
2018-02-16T22:21:43.256Z,26.40
2018-02-16T22:22:43.282Z,21.80
2018-02-16T22:23:43.310Z,18.60
2018-02-16T22:24:43.321Z,19.30
2018-02-16T22:25:43.279Z,19.30
2018-02-16T22:26:43.298Z,18.30
2018-02-16T22:27:43.290Z,18.60
2018-02-16T22:28:43.327Z,17.30
2018-02-16T22:29:43.301Z,17.00
2018-02-16T22:30:43.329Z,17.50
2018-02-16T22:31:43.345Z,19.20
2018-02-16T22:32:43.344Z,19.50
2018-02-16T22:33:43.356Z,18.80
2018-02-16T22:34:43.339Z,18.20
2018-02-16T22:35:43.346Z,18.70
2018-02-16T22:36:43.382Z,20.60
2018-02-16T22:37:43.356Z,18.60
2018-02-16T22:38:43.356Z,17.30
2018-02-16T22:39:43.366Z,16.80
2018-02-16T22:40:43.368Z,18.50
2018-02-16T22:41:43.383Z,20.90
2018-02-16T22:42:43.384Z,28.00
2018-02-16T22:43:43.389Z,25.90
2018-02-16T22:44:43.392Z,28.90
2018-02-16T22:45:43.406Z,20.10
2018-02-16T22:46:43.398Z,23.10
2018-02-16T22:47:43.399Z,22.00
2018-02-16T22:48:43.412Z,19.70
2018-02-16T22:49:43.417Z,27.30
2018-02-16T22:50:43.415Z,29.20
2018-02-16T22:51:43.461Z,23.20
2018-02-16T22:52:43.426Z,22.50
2018-02-16T22:53:43.435Z,20.60
2018-02-16T22:54:43.441Z,21.80
2018-02-16T22:55:43.446Z,21.10
2018-02-16T22:56:43.499Z,21.50
2018-02-16T22:57:43.459Z,23.40
2018-02-16T22:58:43.461Z,28.90
2018-02-16T22:59:43.467Z,31.40
2018-02-16T23:00:43.476Z,31.60
2018-02-16T23:01:43.552Z,34.80
2018-02-16T23:02:43.483Z,30.20
2018-02-16T23:03:43.493Z,21.10
2018-02-16T23:04:43.504Z,52.80
2018-02-16T23:05:43.527Z,40.60
2018-02-16T23:06:43.517Z,38.70
2018-02-16T23:07:43.522Z,25.20
2018-02-16T23:08:43.547Z,22.10
2018-02-16T23:09:43.525Z,22.70
2018-02-16T23:10:43.544Z,22.30
2018-02-16T23:11:43.545Z,25.40
2018-02-16T23:12:43.545Z,25.80
2018-02-16T23:13:43.564Z,32.30
2018-02-16T23:14:43.570Z,26.80
2018-02-16T23:15:43.586Z,22.70
2018-02-16T23:16:43.590Z,22.80
2018-02-16T23:17:44.083Z,23.20
2018-02-16T23:18:43.571Z,22.20
2018-02-16T23:19:43.601Z,30.00
2018-02-16T23:20:43.585Z,24.50
2018-02-16T23:21:43.600Z,22.90
2018-02-16T23:22:43.590Z,23.00
2018-02-16T23:23:43.594Z,24.20
2018-02-16T23:24:43.600Z,24.20
2018-02-16T23:25:43.628Z,21.90
2018-02-16T23:26:43.610Z,21.60
2018-02-16T23:27:43.648Z,23.30
2018-02-16T23:28:43.644Z,23.00
2018-02-16T23:29:43.615Z,113.00
2018-02-16T23:30:43.639Z,63.80
2018-02-16T23:31:43.684Z,30.10
2018-02-16T23:32:43.645Z,25.50
2018-02-16T23:33:43.647Z,29.80
2018-02-16T23:34:43.683Z,28.60
2018-02-16T23:35:43.693Z,26.70
2018-02-16T23:36:43.695Z,27.00
2018-02-16T23:37:43.670Z,25.00
2018-02-16T23:38:43.681Z,28.20
2018-02-16T23:39:43.690Z,35.20
2018-02-16T23:40:43.697Z,30.20
2018-02-16T23:41:43.792Z,35.20
2018-02-16T23:42:43.674Z,34.40
2018-02-16T23:43:43.660Z,27.70
2018-02-16T23:44:43.732Z,29.80
2018-02-16T23:45:43.753Z,24.30
2018-02-16T23:46:43.668Z,25.70
2018-02-16T23:47:43.712Z,28.50
2018-02-16T23:48:43.685Z,32.60
2018-02-16T23:49:43.681Z,48.70
2018-02-16T23:50:43.695Z,34.40
2018-02-16T23:51:43.765Z,34.60
2018-02-16T23:52:43.703Z,27.50
2018-02-16T23:53:43.702Z,24.50
2018-02-16T23:54:43.768Z,23.80
2018-02-16T23:55:43.734Z,23.80
2018-02-16T23:56:45.063Z,25.50
2018-02-16T23:57:43.799Z,24.40
2018-02-16T23:58:43.809Z,28.50
2018-02-16T23:59:43.749Z,29.00
